Time;durP1;ratioP1;P1;durP2;ratioP2;P2;SDS_P1;SDS_P2;PMS_P1;PMS_P2;Temp;Humidity;BMP_temperature;BMP_pressure;BME280_temperature;BME280_humidity;BME280_pressure;Samples;Min_cycle;Max_cycle;Signal;HPM_P1;HPM_P2
2022/05/23 00:01:59;;;;;;;3.40;3.20;;;17.10;98.60;;;;;;4960538;28;20491;-84
2022/05/23 00:04:26;;;;;;;2.90;2.70;;;17.10;98.60;;;;;;4959539;28;20483;-84
2022/05/23 00:06:55;;;;;;;3.63;3.33;;;17.10;98.70;;;;;;4959807;28;20447;-84
2022/05/23 00:09:22;;;;;;;2.70;2.50;;;17.10;98.70;;;;;;4958883;28;20459;-84
2022/05/23 00:11:49;;;;;;;3.63;3.40;;;17.00;98.80;;;;;;4959566;28;20468;-83
2022/05/23 00:14:18;;;;;;;3.27;3.07;;;17.00;98.80;;;;;;4959847;28;20468;-84
2022/05/23 00:16:47;;;;;;;3.00;2.80;;;17.00;98.90;;;;;;4960366;28;20502;-83
2022/05/23 00:19:15;;;;;;;3.20;3.00;;;17.00;98.90;;;;;;4960280;28;20455;-84
2022/05/23 00:21:45;;;;;;;3.43;3.23;;;17.00;99.00;;;;;;4960068;28;20534;-84
2022/05/23 00:24:13;;;;;;;3.33;3.07;;;16.90;99.10;;;;;;4942118;29;20460;-84
2022/05/23 00:26:40;;;;;;;2.67;2.47;;;16.90;99.20;;;;;;4945181;29;20471;-84
2022/05/23 00:29:07;;;;;;;2.83;2.63;;;16.90;99.40;;;;;;4963242;29;20556;-83
2022/05/23 00:31:35;;;;;;;3.20;3.00;;;16.90;99.50;;;;;;4963632;28;20466;-83
2022/05/23 00:36:46;;;;;;;4.67;2.53;;;16.90;99.90;;;;;;4963272;29;20533;-84
2022/05/23 00:39:13;;;;;;;3.37;3.00;;;16.80;99.90;;;;;;4963829;28;20451;-84
2022/05/23 00:44:30;;;;;;;3.10;2.80;;;16.70;99.90;;;;;;4963774;28;20632;-84
2022/05/23 00:47:01;;;;;;;2.93;2.63;;;16.70;99.90;;;;;;4963109;28;20460;-84
2022/05/23 00:49:30;;;;;;;3.20;3.00;;;16.70;99.90;;;;;;4963643;28;20490;-83
2022/05/23 00:52:02;;;;;;;3.80;3.60;;;16.60;99.90;;;;;;4962777;28;20825;-84
2022/05/23 00:54:33;;;;;;;2.90;2.80;;;16.60;99.90;;;;;;4962754;28;20462;-84
2022/05/23 00:57:00;;;;;;;3.50;2.50;;;16.60;99.90;;;;;;4963170;28;20487;-84
2022/05/23 00:59:30;;;;;;;5.23;4.83;;;16.60;99.90;;;;;;4962933;28;20485;-84
2022/05/23 01:01:59;;;;;;;3.20;3.00;;;16.60;99.90;;;;;;4962771;28;20466;-84
2022/05/23 01:04:28;;;;;;;3.47;3.10;;;16.50;99.90;;;;;;4962845;28;20537;-84
2022/05/23 01:06:55;;;;;;;3.20;3.00;;;16.50;99.90;;;;;;4963205;28;20944;-84
2022/05/23 01:09:25;;;;;;;5.23;3.43;;;16.50;99.90;;;;;;4962666;28;20465;-84
2022/05/23 01:11:54;;;;;;;3.50;3.20;;;16.50;99.90;;;;;;4962658;28;20451;-84
2022/05/23 01:14:21;;;;;;;4.83;4.37;;;16.40;99.90;;;;;;4962858;28;20450;-83
2022/05/23 01:16:48;;;;;;;3.63;3.33;;;16.40;99.90;;;;;;4962905;28;20502;-83
2022/05/23 01:19:16;;;;;;;4.13;3.83;;;16.40;99.90;;;;;;4961578;28;20458;-83
2022/05/23 01:21:54;;;;;;;3.33;3.10;;;16.40;99.90;;;;;;4961684;28;20825;-84
2022/05/23 01:24:28;;;;;;;3.50;3.30;;;16.30;99.90;;;;;;4962250;28;20463;-84
2022/05/23 01:26:58;;;;;;;4.00;3.30;;;16.30;99.90;;;;;;4962304;28;20457;-83
2022/05/23 01:29:25;;;;;;;3.63;3.33;;;16.30;99.90;;;;;;4962290;28;20458;-83
2022/05/23 01:31:55;;;;;;;3.57;3.27;;;16.30;99.90;;;;;;4961698;28;20469;-84
2022/05/23 01:34:22;;;;;;;4.77;3.47;;;16.30;99.90;;;;;;4962087;28;20899;-84
2022/05/23 01:36:49;;;;;;;3.37;3.17;;;16.20;99.90;;;;;;4961957;28;20486;-84
2022/05/23 01:39:15;;;;;;;4.67;3.30;;;16.20;99.90;;;;;;4962574;28;20470;-84
2022/05/23 01:41:42;;;;;;;3.53;3.33;;;16.20;99.90;;;;;;4961852;28;20457;-84
2022/05/23 01:44:10;;;;;;;3.10;2.90;;;16.10;99.90;;;;;;4962121;28;20462;-83
2022/05/23 01:46:37;;;;;;;2.77;2.40;;;16.10;99.90;;;;;;4962463;28;20460;-84
2022/05/23 01:49:05;;;;;;;3.97;3.27;;;16.10;99.90;;;;;;4962463;28;20459;-84
2022/05/23 01:51:32;;;;;;;3.27;2.97;;;16.10;99.90;;;;;;4962266;28;20456;-84
2022/05/23 01:53:58;;;;;;;2.80;2.70;;;16.10;99.90;;;;;;4962733;28;20464;-83
2022/05/23 01:56:25;;;;;;;3.60;3.30;;;16.00;99.90;;;;;;4962167;28;20494;-84
2022/05/23 02:01:38;;;;;;;5.83;4.00;;;16.00;99.90;;;;;;4961670;29;20428;-83
2022/05/23 02:04:05;;;;;;;3.50;3.20;;;16.00;99.90;;;;;;4961915;28;20464;-84
2022/05/23 02:06:32;;;;;;;3.63;3.40;;;16.00;99.90;;;;;;4962542;28;20453;-83
2022/05/23 02:08:59;;;;;;;3.33;3.03;;;15.90;99.90;;;;;;4962156;28;20461;-83
2022/05/23 02:11:26;;;;;;;3.00;2.80;;;15.90;99.90;;;;;;4961668;28;20472;-83
2022/05/23 02:13:52;;;;;;;3.53;3.23;;;15.80;99.90;;;;;;4961293;28;20454;-83
2022/05/23 02:16:22;;;;;;;5.20;3.17;;;15.80;99.90;;;;;;4961301;28;20494;-83
2022/05/23 02:18:50;;;;;;;3.40;3.20;;;15.80;99.90;;;;;;4961733;28;20454;-83
2022/05/23 02:21:17;;;;;;;3.37;3.10;;;15.80;99.90;;;;;;4961400;28;20474;-84
2022/05/23 02:23:44;;;;;;;4.70;3.83;;;15.70;99.90;;;;;;4961274;28;20455;-84
2022/05/23 02:26:11;;;;;;;3.63;3.30;;;15.70;99.90;;;;;;4961387;28;20451;-84
2022/05/23 02:28:38;;;;;;;3.47;3.27;;;15.70;99.90;;;;;;4961044;28;20996;-84
2022/05/23 02:31:04;;;;;;;3.50;3.30;;;15.70;99.90;;;;;;4961011;28;20484;-83
2022/05/23 02:33:31;;;;;;;3.87;3.57;;;15.60;99.90;;;;;;4961697;28;20457;-83
2022/05/23 02:35:59;;;;;;;3.70;3.40;;;15.60;99.90;;;;;;4961288;28;20860;-83
2022/05/23 02:38:26;;;;;;;3.63;3.43;;;15.60;99.90;;;;;;4960209;28;20520;-83
2022/05/23 02:40:53;;;;;;;3.87;3.67;;;15.60;99.90;;;;;;4960967;28;20852;-83
2022/05/23 02:43:20;;;;;;;4.30;3.93;;;15.60;99.90;;;;;;4960587;28;20454;-83
2022/05/23 02:45:46;;;;;;;4.17;3.77;;;15.60;99.90;;;;;;4961402;28;20465;-83
2022/05/23 02:48:13;;;;;;;4.40;3.93;;;15.60;99.90;;;;;;4960248;28;20463;-83
2022/05/23 02:50:40;;;;;;;5.03;4.73;;;15.60;99.90;;;;;;4960884;28;20466;-83
2022/05/23 02:53:08;;;;;;;3.20;2.90;;;15.60;99.90;;;;;;4960456;28;20465;-84
2022/05/23 02:55:34;;;;;;;5.80;4.20;;;15.60;99.90;;;;;;4961212;28;20462;-84
2022/05/23 02:58:01;;;;;;;3.90;3.70;;;15.60;99.90;;;;;;4961001;28;20495;-83
2022/05/23 03:00:28;;;;;;;5.23;4.73;;;15.70;99.90;;;;;;4960347;28;20489;-84
2022/05/23 03:03:04;;;;;;;3.70;3.40;;;15.70;99.90;;;;;;4960551;28;20512;-84
2022/05/23 03:05:32;;;;;;;4.40;4.00;;;15.70;99.90;;;;;;4960591;28;20478;-83
2022/05/23 03:07:59;;;;;;;3.73;3.40;;;15.70;99.90;;;;;;4960627;28;20977;-83
2022/05/23 03:10:27;;;;;;;4.50;4.10;;;15.80;99.90;;;;;;4960225;28;20474;-83
2022/05/23 03:12:54;;;;;;;4.60;4.20;;;15.80;99.90;;;;;;4960266;28;20457;-83
2022/05/23 03:15:22;;;;;;;4.30;3.60;;;15.80;99.90;;;;;;4960161;28;20452;-84
2022/05/23 03:17:49;;;;;;;4.13;3.90;;;15.80;99.90;;;;;;4960297;28;20508;-84
2022/05/23 03:20:17;;;;;;;4.80;4.40;;;15.90;99.90;;;;;;4960830;28;20481;-83
2022/05/23 03:28:14;;;;;;;3.93;3.60;;;16.00;99.90;;;;;;4960487;28;20573;-84
2022/05/23 03:30:41;;;;;;;2.70;2.50;;;15.90;99.90;;;;;;4957767;28;20486;-82
2022/05/23 03:33:10;;;;;;;4.10;3.90;;;15.90;99.90;;;;;;4956169;28;21066;-82
2022/05/23 03:35:37;;;;;;;3.70;3.50;;;16.00;99.90;;;;;;4956170;28;20490;-82
2022/05/23 03:38:04;;;;;;;3.33;3.03;;;15.90;99.90;;;;;;4955494;28;21151;-82
2022/05/23 03:40:35;;;;;;;3.83;3.53;;;15.90;99.90;;;;;;4955795;28;20880;-82
2022/05/23 03:43:01;;;;;;;3.80;3.50;;;16.00;99.90;;;;;;4956005;28;20466;-82
2022/05/23 03:45:29;;;;;;;3.80;3.60;;;16.00;99.90;;;;;;4955830;28;21106;-82
2022/05/23 03:47:56;;;;;;;5.13;4.73;;;16.00;99.90;;;;;;4955925;28;20821;-81
2022/05/23 03:50:26;;;;;;;4.60;4.30;;;15.90;99.90;;;;;;4955230;28;20485;-82
2022/05/23 03:52:53;;;;;;;4.43;4.03;;;16.00;99.90;;;;;;4956615;28;20453;-82
2022/05/23 03:55:20;;;;;;;3.97;3.63;;;16.10;99.90;;;;;;4955636;28;20461;-82
2022/05/23 03:57:48;;;;;;;6.90;4.00;;;16.00;99.90;;;;;;4956533;28;20493;-82
2022/05/23 04:00:17;;;;;;;5.17;4.87;;;16.10;99.90;;;;;;4959410;28;20507;-82
2022/05/23 04:02:44;;;;;;;7.63;3.10;;;16.20;99.90;;;;;;4959739;28;20462;-82
2022/05/23 04:05:16;;;;;;;3.53;3.27;;;16.30;99.90;;;;;;4959241;28;20936;-82
2022/05/23 04:07:43;;;;;;;3.47;3.17;;;16.30;99.90;;;;;;4959985;28;20517;-82
2022/05/23 04:10:12;;;;;;;3.20;3.00;;;16.30;99.90;;;;;;4959203;28;20567;-82
2022/05/23 04:12:39;;;;;;;3.10;2.83;;;16.40;99.90;;;;;;4959724;28;20454;-82
2022/05/23 04:15:09;;;;;;;3.00;2.80;;;16.50;99.90;;;;;;4959516;28;20951;-82
2022/05/23 04:17:36;;;;;;;2.67;2.50;;;16.30;99.90;;;;;;4942994;29;20486;-82
2022/05/23 04:20:04;;;;;;;5.03;3.87;;;15.90;99.90;;;;;;4959547;28;20477;-81
2022/05/23 04:22:31;;;;;;;2.50;2.30;;;15.70;99.90;;;;;;4958982;28;20463;-81
2022/05/23 04:24:58;;;;;;;2.93;2.53;;;15.70;99.90;;;;;;4959260;28;20457;-81
2022/05/23 04:27:25;;;;;;;2.70;2.50;;;15.80;99.90;;;;;;4959198;28;20822;-81
2022/05/23 04:29:52;;;;;;;3.27;2.97;;;15.90;99.90;;;;;;4959018;28;20487;-81
2022/05/23 04:35:15;;;;;;;3.57;2.80;;;15.90;99.90;;;;;;4928050;29;20519;-81
2022/05/23 04:37:44;;;;;;;2.37;2.27;;;15.80;99.90;;;;;;4940001;29;21029;-82
2022/05/23 04:40:13;;;;;;;3.00;2.80;;;15.80;99.90;;;;;;4951335;28;20563;-82
2022/05/23 04:42:39;;;;;;;4.90;4.40;;;15.90;99.90;;;;;;4961971;28;20528;-81
2022/05/23 04:45:07;;;;;;;3.27;3.07;;;15.70;99.90;;;;;;4961573;28;20459;-82
2022/05/23 04:50:35;;;;;;;4.83;3.03;;;15.80;99.90;;;;;;4958658;28;20489;-83
2022/05/23 05:54:38;;;;;;;6.33;5.03;;;16.10;99.90;;;;;;4853021;29;20482;-84
2022/05/23 07:12:23;;;;;;;7.97;5.47;;;17.50;99.90;;;;;;4651962;30;20986;-85
2022/05/23 07:15:27;;;;;;;5.50;5.00;;;17.70;99.90;;;;;;4727790;30;20976;-86
2022/05/23 07:17:59;;;;;;;5.47;4.97;;;17.90;99.90;;;;;;4756225;29;20518;-86
2022/05/23 07:20:26;;;;;;;4.20;3.90;;;18.00;99.90;;;;;;4895271;29;20525;-86
2022/05/23 07:23:28;;;;;;;5.23;4.80;;;18.20;99.90;;;;;;4924930;28;20475;-87
2022/05/23 07:25:58;;;;;;;4.93;4.53;;;18.40;99.90;;;;;;4959455;29;20452;-82
2022/05/23 07:28:25;;;;;;;4.40;4.10;;;18.60;99.90;;;;;;4961083;28;21070;-84
2022/05/23 07:30:52;;;;;;;5.73;5.33;;;18.80;99.90;;;;;;4958795;28;20870;-84
2022/05/23 07:33:35;;;;;;;6.33;5.83;;;19.00;99.90;;;;;;4955491;28;20479;-85
2022/05/23 07:36:12;;;;;;;6.10;5.60;;;19.20;99.90;;;;;;4956571;28;20468;-87
2022/05/23 07:38:42;;;;;;;4.33;3.90;;;19.30;99.90;;;;;;4943946;28;21033;-86
2022/05/23 07:41:12;;;;;;;5.67;5.27;;;19.40;99.90;;;;;;4944107;29;20480;-84
2022/05/23 07:43:42;;;;;;;4.43;4.07;;;19.50;99.90;;;;;;4961394;28;21019;-84
2022/05/23 07:46:43;;;;;;;4.37;4.07;;;19.70;99.90;;;;;;4961588;28;21018;-85
2022/05/23 07:49:30;;;;;;;4.90;4.50;;;19.80;99.90;;;;;;4961896;28;20468;-85
2022/05/23 08:00:30;;;;;;;5.07;3.90;;;19.90;99.90;;;;;;4963342;28;20802;-85
2022/05/23 08:01:08;;;;;;;4.90;4.50;;;20.20;99.90;;;;;;4957147;28;20826;-85
2022/05/23 08:03:35;;;;;;;4.90;4.50;;;20.30;99.90;;;;;;4937723;29;20467;-86
2022/05/23 08:06:15;;;;;;;4.13;3.70;;;20.50;99.90;;;;;;4940348;29;21044;-86
2022/05/23 08:08:54;;;;;;;5.30;3.87;;;20.70;99.90;;;;;;4956799;28;20482;-87
2022/05/23 09:11:17;;;;;;;3.50;3.30;;;21.40;99.90;;;;;;1447547;26;20559;-85
2022/05/23 09:20:52;;;;;;;4.60;4.10;;;20.60;99.90;;;;;;4981075;28;20423;-85
2022/05/23 09:23:28;;;;;;;4.40;4.10;;;20.50;99.90;;;;;;4987610;28;20450;-85
2022/05/23 09:25:56;;;;;;;4.87;4.47;;;20.40;99.90;;;;;;4986743;28;21085;-83
2022/05/23 09:28:31;;;;;;;3.90;3.70;;;20.40;99.90;;;;;;4979277;28;20500;-87
2022/05/23 09:31:00;;;;;;;4.40;4.10;;;20.60;99.90;;;;;;4979031;28;20481;-85
2022/05/23 09:33:30;;;;;;;5.60;4.43;;;20.60;99.90;;;;;;4977803;28;20520;-86
2022/05/23 09:36:10;;;;;;;3.63;3.33;;;20.70;99.90;;;;;;4974980;28;20829;-86
2022/05/23 09:38:47;;;;;;;6.47;4.53;;;20.90;99.90;;;;;;4962859;28;20457;-86
2022/05/23 09:41:29;;;;;;;6.57;4.77;;;21.00;99.90;;;;;;4977572;28;20836;-85
2022/05/23 09:56:51;;;;;;;4.73;4.33;;;21.90;99.90;;;;;;4979929;28;20784;-86
2022/05/23 09:59:25;;;;;;;4.20;3.90;;;21.90;99.90;;;;;;4981884;28;20497;-85
2022/05/23 10:08:57;;;;;;;4.77;4.37;;;22.40;99.90;;;;;;4937070;29;20513;-84
2022/05/23 10:11:56;;;;;;;5.53;5.03;;;22.60;99.90;;;;;;4930438;29;20568;-85
2022/05/23 10:14:27;;;;;;;4.27;3.90;;;22.70;99.90;;;;;;4904629;29;20463;-83
2022/05/23 10:16:56;;;;;;;5.23;4.83;;;23.00;99.90;;;;;;4946863;28;20452;-84
2022/05/23 10:22:39;;;;;;;4.47;4.10;;;23.30;99.90;;;;;;4904582;29;20458;-84
2022/05/23 10:28:37;;;;;;;4.30;4.00;;;22.70;99.90;;;;;;4894101;29;21359;-83
2022/05/23 10:35:33;;;;;;;4.80;3.77;;;22.80;99.90;;;;;;4960597;28;20462;-84
2022/05/23 11:25:43;;;;;;;7.07;6.37;;;19.20;99.90;;;;;;4893109;29;20453;-84
2022/05/23 11:34:25;;;;;;;9.50;8.57;;;18.20;99.90;;;;;;4983881;28;20513;-84
2022/05/23 11:37:01;;;;;;;9.13;8.17;;;17.90;99.90;;;;;;4979252;28;20469;-83
2022/05/23 11:44:58;;;;;;;5.53;5.03;;;17.50;99.90;;;;;;4956964;29;20538;-83
2022/05/23 11:47:27;;;;;;;7.23;6.07;;;17.40;99.90;;;;;;4958208;28;20483;-86
2022/05/23 11:50:23;;;;;;;5.20;4.80;;;17.30;99.90;;;;;;4957622;28;20572;-83
2022/05/23 11:53:03;;;;;;;3.27;2.97;;;17.00;99.90;;;;;;4956928;28;20809;-82
2022/05/23 11:56:01;;;;;;;3.67;3.37;;;16.90;99.90;;;;;;4957662;28;21049;-82
2022/05/23 11:58:49;;;;;;;4.20;3.73;;;16.80;99.90;;;;;;4956214;28;20514;-83
2022/05/23 12:01:24;;;;;;;3.80;2.93;;;16.70;99.90;;;;;;4960647;28;20477;-82
2022/05/23 12:04:19;;;;;;;2.93;2.63;;;16.50;99.90;;;;;;4959009;28;20469;-83
2022/05/23 12:06:46;;;;;;;5.70;4.23;;;16.50;99.90;;;;;;4957436;28;20451;-85
2022/05/23 12:09:38;;;;;;;5.00;3.30;;;16.60;99.90;;;;;;4958880;28;20573;-84
2022/05/23 12:12:53;;;;;;;7.50;4.10;;;16.60;99.90;;;;;;4960136;28;20494;-86
2022/05/23 12:15:52;;;;;;;6.63;3.70;;;16.80;99.90;;;;;;4959030;28;20493;-86
2022/05/23 12:18:39;;;;;;;4.37;2.83;;;16.70;99.90;;;;;;4959141;28;20961;-86
2022/05/23 12:21:20;;;;;;;3.60;3.30;;;16.70;99.90;;;;;;4963850;28;20478;-84
2022/05/23 12:23:47;;;;;;;4.83;3.87;;;16.70;99.90;;;;;;4965584;28;20462;-84
2022/05/23 12:26:26;;;;;;;8.60;3.50;;;16.70;99.90;;;;;;4965852;28;20458;-86
2022/05/23 12:28:57;;;;;;;5.17;3.03;;;16.80;99.90;;;;;;4965657;28;20487;-84
2022/05/23 12:31:25;;;;;;;5.50;3.07;;;16.90;99.90;;;;;;4964766;28;20719;-84
2022/05/23 12:34:09;;;;;;;6.43;3.37;;;17.00;99.90;;;;;;4965689;28;20459;-82
2022/05/23 12:36:40;;;;;;;5.87;3.80;;;17.10;99.90;;;;;;4962340;28;20461;-83
2022/05/23 12:39:37;;;;;;;8.20;3.40;;;17.00;99.90;;;;;;4966672;28;20452;-86
2022/05/23 12:42:22;;;;;;;6.03;3.83;;;17.10;99.90;;;;;;4965783;28;20877;-83
2022/05/23 12:45:28;;;;;;;5.20;4.00;;;17.20;99.90;;;;;;4966016;28;20804;-85
2022/05/23 12:48:25;;;;;;;6.13;4.30;;;17.40;99.90;;;;;;4966040;28;20484;-83
2022/05/23 12:51:07;;;;;;;5.63;3.50;;;17.60;99.90;;;;;;4965857;28;20519;-83
2022/05/23 12:53:50;;;;;;;5.00;3.13;;;17.80;99.90;;;;;;4963984;28;20455;-85
2022/05/23 12:56:42;;;;;;;3.53;3.23;;;18.00;99.90;;;;;;4963459;28;20469;-83
2022/05/23 12:59:29;;;;;;;3.83;3.43;;;18.30;99.90;;;;;;4963181;28;20455;-85
2022/05/23 13:02:02;;;;;;;3.13;2.90;;;18.50;99.90;;;;;;4964882;28;20452;-85
2022/05/23 13:04:35;;;;;;;3.70;2.83;;;18.60;99.90;;;;;;4965857;28;20462;-85
2022/05/23 13:07:09;;;;;;;4.50;2.90;;;18.90;99.90;;;;;;4966756;28;20452;-85
2022/05/23 13:09:44;;;;;;;2.97;2.67;;;19.10;99.90;;;;;;4967356;28;20503;-85
2022/05/23 13:12:17;;;;;;;3.00;2.67;;;19.30;99.90;;;;;;4966699;28;20811;-84
2022/05/23 13:14:53;;;;;;;3.13;2.63;;;19.60;99.90;;;;;;4967185;28;20454;-84
2022/05/23 13:17:37;;;;;;;6.93;2.73;;;19.90;99.90;;;;;;4967490;28;20483;-84
2022/05/23 13:23:02;;;;;;;2.80;2.37;;;20.80;99.90;;;;;;4966084;29;20438;-84
2022/05/23 13:25:29;;;;;;;5.73;3.30;;;21.40;99.90;;;;;;4966295;28;20460;-84
2022/05/23 13:27:58;;;;;;;4.00;3.00;;;21.90;99.90;;;;;;4967183;28;20550;-85
2022/05/23 13:30:31;;;;;;;3.60;3.10;;;22.40;99.90;;;;;;4966840;28;20494;-84
2022/05/23 15:30:56;;;;;;;4.03;3.73;;;24.10;97.10;;;;;;4747225;30;20477;-86
2022/05/23 15:33:23;;;;;;;4.30;3.13;;;23.90;96.90;;;;;;4788547;30;20459;-85
2022/05/23 15:36:01;;;;;;;3.10;2.87;;;23.60;97.90;;;;;;4783595;29;20473;-87
2022/05/23 15:42:40;;;;;;;3.60;3.30;;;23.50;98.50;;;;;;4855595;29;20421;-84
2022/05/23 15:45:13;;;;;;;5.57;3.27;;;23.30;99.20;;;;;;4860544;29;20559;-87
2022/05/23 15:47:59;;;;;;;5.05;3.10;;;23.20;99.80;;;;;;4891482;29;20449;-86
2022/05/23 15:50:34;;;;;;;4.67;3.87;;;23.10;99.90;;;;;;4937376;29;20225;-84
2022/05/23 15:53:07;;;;;;;5.90;2.87;;;23.00;99.90;;;;;;4934713;29;20861;-85
2022/05/23 15:55:36;;;;;;;3.40;3.20;;;22.90;99.90;;;;;;4940576;29;20973;-85
2022/05/23 15:58:05;;;;;;;5.33;3.80;;;22.70;99.90;;;;;;4955508;28;20549;-84
2022/05/23 16:00:35;;;;;;;4.30;3.10;;;22.70;99.90;;;;;;4937706;28;20995;-85
2022/05/23 16:03:04;;;;;;;6.43;4.20;;;22.60;99.90;;;;;;4949138;28;20545;-83
2022/05/23 16:05:32;;;;;;;3.67;3.33;;;22.50;99.90;;;;;;4967533;28;20447;-83
2022/05/23 16:08:04;;;;;;;8.93;3.83;;;22.30;99.90;;;;;;4956642;28;20434;-84
2022/05/23 16:10:32;;;;;;;3.60;3.30;;;22.20;99.90;;;;;;4956311;28;20511;-83
2022/05/23 16:13:05;;;;;;;4.50;4.20;;;22.20;99.90;;;;;;4958246;28;20462;-85
2022/05/23 16:15:32;;;;;;;5.40;4.20;;;22.00;99.90;;;;;;4960689;28;20423;-82
2022/05/23 16:18:01;;;;;;;4.40;4.00;;;21.90;99.90;;;;;;4954640;28;20463;-83
2022/05/23 16:20:31;;;;;;;4.40;3.93;;;21.90;99.90;;;;;;4937528;29;20475;-84
2022/05/23 16:23:05;;;;;;;7.73;4.17;;;21.90;99.90;;;;;;4943251;28;20460;-84
2022/05/23 16:25:32;;;;;;;4.87;4.43;;;21.90;99.90;;;;;;4944378;28;20457;-85
2022/05/23 16:27:59;;;;;;;4.83;4.27;;;21.80;99.90;;;;;;4964323;23;20492;-86
2022/05/23 16:30:25;;;;;;;7.07;4.13;;;21.80;99.90;;;;;;4968812;28;20486;-83
2022/05/23 16:39:27;;;;;;;6.00;3.70;;;21.50;99.90;;;;;;4992483;23;20502;-87
2022/05/23 16:41:55;;;;;;;6.33;4.50;;;21.20;99.90;;;;;;4953690;29;20528;-85
2022/05/23 16:44:22;;;;;;;4.73;4.27;;;21.10;99.90;;;;;;4968729;29;20513;-84
2022/05/23 16:46:50;;;;;;;5.73;4.27;;;21.00;99.90;;;;;;4969177;29;20422;-84
2022/05/23 16:49:18;;;;;;;3.87;3.57;;;21.00;99.90;;;;;;4952667;29;20497;-84
2022/05/23 16:51:45;;;;;;;5.13;4.50;;;20.90;99.90;;;;;;4951940;29;20450;-84
2022/05/23 16:54:15;;;;;;;7.27;4.00;;;20.90;99.90;;;;;;4953049;29;20849;-84
2022/05/23 16:56:43;;;;;;;3.80;3.50;;;20.80;99.90;;;;;;4952401;29;20492;-84
2022/05/23 16:59:10;;;;;;;4.80;3.90;;;20.70;99.90;;;;;;4953145;29;20468;-85
2022/05/23 17:01:38;;;;;;;8.67;4.37;;;20.70;99.90;;;;;;4951693;29;20489;-84
2022/05/23 17:04:05;;;;;;;6.33;4.10;;;20.60;99.90;;;;;;4933920;29;20466;-84
2022/05/23 17:06:31;;;;;;;4.33;3.33;;;20.60;99.90;;;;;;4934901;29;20450;-83
2022/05/23 17:08:58;;;;;;;10.53;5.90;;;20.50;99.90;;;;;;4944383;29;20858;-84
2022/05/23 17:11:25;;;;;;;5.20;4.80;;;20.40;99.90;;;;;;4945349;29;20458;-84
2022/05/23 17:13:53;;;;;;;4.00;3.70;;;20.30;99.90;;;;;;4946054;29;20487;-84
2022/05/23 17:16:20;;;;;;;5.93;4.00;;;20.20;99.90;;;;;;4946071;29;20460;-83
2022/05/23 17:18:47;;;;;;;4.30;3.70;;;20.20;99.90;;;;;;4944655;29;20485;-83
2022/05/23 17:21:14;;;;;;;5.60;3.83;;;20.10;99.90;;;;;;4957268;29;20433;-84
2022/05/23 17:23:41;;;;;;;3.40;3.10;;;20.10;99.90;;;;;;4951763;29;20454;-83
2022/05/23 17:26:08;;;;;;;6.70;3.90;;;20.10;99.90;;;;;;4942795;29;20461;-84
2022/05/23 17:28:36;;;;;;;5.00;4.47;;;20.10;99.90;;;;;;4943946;29;20477;-83
2022/05/23 17:31:05;;;;;;;3.83;3.47;;;20.10;99.90;;;;;;4943906;29;20487;-85
2022/05/23 17:33:32;;;;;;;5.17;3.23;;;20.10;99.90;;;;;;4944943;29;20456;-84
2022/05/23 17:35:59;;;;;;;4.30;3.50;;;20.00;99.90;;;;;;4945876;29;20460;-85
2022/05/23 17:38:26;;;;;;;4.03;3.27;;;20.10;99.90;;;;;;4945662;29;20476;-85
2022/05/23 17:41:00;;;;;;;4.70;3.53;;;20.00;99.90;;;;;;4945727;29;20469;-85
2022/05/23 17:43:27;;;;;;;6.17;2.93;;;20.10;99.90;;;;;;4946096;29;20489;-84
2022/05/23 17:45:54;;;;;;;2.80;2.60;;;20.10;99.90;;;;;;4946002;29;20458;-84
2022/05/23 17:48:22;;;;;;;3.90;3.50;;;20.10;99.90;;;;;;4945822;29;20469;-84
2022/05/23 17:50:49;;;;;;;5.20;4.03;;;20.10;99.90;;;;;;4945035;29;20482;-83
2022/05/23 17:53:16;;;;;;;4.43;3.13;;;20.10;99.90;;;;;;4946319;29;20445;-84
2022/05/23 17:55:47;;;;;;;6.50;3.00;;;20.20;99.90;;;;;;4945683;29;20453;-84
2022/05/23 17:58:14;;;;;;;3.93;3.07;;;20.20;99.90;;;;;;4944120;29;20582;-84
2022/05/23 18:00:41;;;;;;;4.40;3.70;;;20.20;99.90;;;;;;4943163;29;20465;-84
2022/05/23 18:03:08;;;;;;;4.03;3.73;;;20.10;99.90;;;;;;4956441;29;20450;-83
2022/05/23 18:05:37;;;;;;;6.80;3.50;;;20.00;99.90;;;;;;4959927;29;20441;-84
2022/05/23 18:08:05;;;;;;;3.33;3.13;;;19.90;99.90;;;;;;4954072;29;20479;-85
2022/05/23 18:10:32;;;;;;;3.77;2.77;;;19.80;99.90;;;;;;4952983;29;20540;-85
2022/05/23 18:13:01;;;;;;;4.13;3.80;;;19.60;99.90;;;;;;4954710;29;20921;-86
2022/05/23 18:21:16;;;;;;;5.33;3.57;;;19.60;99.90;;;;;;4940123;29;20442;-84
2022/05/23 18:23:50;;;;;;;6.03;3.77;;;19.50;99.90;;;;;;4940530;29;20488;-85
2022/05/23 18:26:17;;;;;;;5.40;3.33;;;19.60;99.90;;;;;;4940450;29;20463;-86
2022/05/23 18:28:44;;;;;;;5.60;4.20;;;19.60;99.90;;;;;;4940610;29;20509;-85
2022/05/23 18:31:14;;;;;;;4.53;4.23;;;19.50;99.90;;;;;;4941144;29;20975;-84
2022/05/23 18:33:42;;;;;;;7.90;4.20;;;19.50;99.90;;;;;;4941589;29;20521;-85
2022/05/23 18:36:18;;;;;;;4.40;3.37;;;19.40;99.90;;;;;;4940839;29;20522;-85
2022/05/23 18:39:01;;;;;;;4.40;4.00;;;19.40;99.90;;;;;;4940485;29;20520;-86
2022/05/23 18:41:34;;;;;;;4.57;3.50;;;19.40;99.90;;;;;;4939501;29;20866;-85
2022/05/23 18:50:53;;;;;;;2.50;2.37;;;19.20;99.90;;;;;;4938777;29;20597;-86
2022/05/23 18:53:23;;;;;;;3.20;2.87;;;19.20;99.90;;;;;;4938734;29;20447;-85
2022/05/23 18:55:57;;;;;;;5.33;3.07;;;19.30;99.90;;;;;;4938866;29;20959;-86
2022/05/23 19:01:59;;;;;;;3.13;2.13;;;19.20;99.90;;;;;;4866109;29;20540;-87
2022/05/23 19:04:26;;;;;;;2.80;2.33;;;19.30;99.90;;;;;;4916882;29;20459;-87
2022/05/23 19:06:53;;;;;;;4.83;2.43;;;19.30;99.90;;;;;;4935539;29;20829;-87
2022/05/23 19:09:22;;;;;;;2.60;2.40;;;19.20;99.90;;;;;;4935670;29;20491;-86
2022/05/23 19:11:52;;;;;;;2.83;2.57;;;19.20;99.90;;;;;;4935151;29;20458;-87
2022/05/23 19:15:05;;;;;;;4.17;2.80;;;19.10;99.90;;;;;;4938519;29;20468;-87
2022/05/23 19:18:03;;;;;;;;;;;;;;;;;;;;;
2022/05/23 19:20:35;;;;;;;3.60;2.50;;;19.10;99.90;;;;;;4881665;29;20455;-86
2022/05/23 19:23:04;;;;;;;4.90;2.00;;;19.10;99.90;;;;;;4891882;29;20457;-86
2022/05/23 19:25:45;;;;;;;2.43;2.10;;;19.00;99.90;;;;;;4882018;29;20600;-87
2022/05/23 19:28:35;;;;;;;4.80;2.50;;;18.90;99.90;;;;;;4890105;29;20982;-87
2022/05/23 19:31:13;;;;;;;3.53;2.50;;;19.00;99.90;;;;;;4934589;29;20482;-86
2022/05/23 19:33:40;;;;;;;3.90;2.13;;;18.90;99.90;;;;;;4935719;29;20451;-86
2022/05/23 19:36:12;;;;;;;2.27;2.17;;;18.90;99.90;;;;;;4935522;29;20458;-86
2022/05/23 19:38:39;;;;;;;3.47;2.30;;;18.90;99.90;;;;;;4935587;29;20560;-86
2022/05/23 19:41:13;;;;;;;2.63;2.30;;;18.80;99.90;;;;;;4935254;29;20505;-86
2022/05/23 19:43:44;;;;;;;3.20;2.03;;;18.80;99.90;;;;;;4936497;29;21006;-86
2022/05/23 19:46:13;;;;;;;4.00;2.30;;;18.70;99.90;;;;;;4936012;29;20468;-87
2022/05/23 19:48:40;;;;;;;4.30;2.67;;;18.60;99.90;;;;;;4935243;29;20564;-87
2022/05/23 19:51:10;;;;;;;2.40;2.23;;;18.70;99.90;;;;;;4936955;29;20523;-86
2022/05/23 19:53:38;;;;;;;2.20;2.00;;;18.60;99.90;;;;;;4940541;29;20491;-86
2022/05/23 19:56:08;;;;;;;5.23;2.07;;;18.60;99.90;;;;;;4940970;29;20460;-86
